Aurora, Colorado
Current Conditions -  °F | °C
As of 1:58 AM on Wednesday 26 Nov 2014 (Local Time) from KBKF Reporting Station
Light Snow Light Snow  
Wind Chill: 22°   Ceiling: 1100
Heat Index: 28°   Visibility: 6mi
Dew Point: 26°   Wind: 6mph
Humidity: 93%   Direction: 60°ENE
Pressure: 30.17"   Gusts: NA
Location:  39.69°N, 104.86°W
Report Text: KBKF 260858Z 06005KT 6SM -SN BR BKN011 OVC023 M02/M03 A3017 RMK AO2A SLP215 P0000 60000 T10221032 50013
Loading
Personal Weather Stations






























Interactive Weather Map New forecast layout! Learn more

10-Day Weather Forecast

Advertisements
Track Severe Weather on mobile